Time;durP1;ratioP1;P1;durP2;ratioP2;P2;SDS_P1;SDS_P2;PMS_P1;PMS_P2;Temp;Humidity;BMP_temperature;BMP_pressure;BME280_temperature;BME280_humidity;BME280_pressure;Samples;Min_cycle;Max_cycle;Signal;HPM_P1;HPM_P2
2023/12/26 00:00:16;;;;;;;4.18;2.10;;;;;;;8.89;100.00;100515.06;6125935;23;20002;-80
2023/12/26 00:02:42;;;;;;;6.50;2.10;;;;;;;9.35;100.00;100594.69;6123737;23;20090;-82
2023/12/26 00:05:07;;;;;;;8.70;2.40;;;;;;;9.22;100.00;100568.84;6126086;23;20028;-81
2023/12/26 00:07:32;;;;;;;4.93;2.22;;;;;;;9.33;100.00;100597.34;6123604;23;20096;-79
2023/12/26 00:09:58;;;;;;;5.18;2.67;;;;;;;9.32;100.00;100589.72;6126006;23;20005;-81
2023/12/26 00:12:24;;;;;;;4.78;2.70;;;;;;;9.30;100.00;100596.72;6125962;23;20018;-81
2023/12/26 00:14:50;;;;;;;5.90;2.88;;;;;;;8.89;100.00;100522.81;6099577;23;20033;-79
2023/12/26 00:17:15;;;;;;;8.07;2.42;;;;;;;9.28;100.00;100596.81;6125775;23;20040;-79
2023/12/26 00:19:41;;;;;;;7.70;3.05;;;;;;;9.27;100.00;100582.28;6126173;23;20002;-78
2023/12/26 00:22:06;;;;;;;7.10;3.45;;;;;;;9.27;100.00;100584.84;6126191;23;20017;-80
2023/12/26 00:24:32;;;;;;;6.53;3.28;;;;;;;9.26;100.00;100590.94;6125741;23;20060;-82
2023/12/26 00:26:57;;;;;;;6.20;3.33;;;;;;;9.26;100.00;100574.66;6125967;23;20013;-80
2023/12/26 00:29:24;;;;;;;6.43;3.58;;;;;;;9.20;100.00;100568.94;6125976;23;20013;-80
2023/12/26 00:31:49;;;;;;;7.55;3.75;;;;;;;8.80;100.00;100508.72;6125517;23;20495;-80
2023/12/26 00:34:15;;;;;;;5.80;3.63;;;;;;;9.25;100.00;100576.41;6125787;23;20006;-81
2023/12/26 00:36:40;;;;;;;5.82;3.67;;;;;;;9.26;100.00;100590.94;6125887;23;20337;-81
2023/12/26 00:39:06;;;;;;;6.05;3.80;;;;;;;9.28;100.00;100601.97;6100283;23;20037;-81
2023/12/26 00:41:31;;;;;;;7.68;4.00;;;;;;;8.56;100.00;100489.63;6125521;23;20013;-78
2023/12/26 00:43:57;;;;;;;6.38;3.72;;;;;;;9.24;100.00;100586.78;6125984;23;20008;-80
2023/12/26 00:46:22;;;;;;;6.88;3.63;;;;;;;9.10;100.00;100562.69;6099514;23;20380;-77
2023/12/26 00:48:48;;;;;;;5.22;3.72;;;;;;;8.75;100.00;100518.50;6125957;23;20009;-81
2023/12/26 00:51:13;;;;;;;6.25;3.70;;;;;;;9.25;100.00;100607.31;6125814;23;20085;-81
2023/12/26 00:53:41;;;;;;;6.60;3.80;;;;;;;9.25;100.00;100601.34;6126114;23;20053;-83
2023/12/26 00:56:07;;;;;;;5.75;3.78;;;;;;;9.26;100.00;100606.41;6126115;23;20301;-84
2023/12/26 00:58:33;;;;;;;7.15;3.67;;;;;;;9.08;100.00;100577.44;6125174;23;20013;-78
2023/12/26 01:00:58;;;;;;;6.28;3.38;;;;;;;9.26;100.00;100608.97;6125593;23;20428;-77
2023/12/26 01:03:23;;;;;;;5.25;3.55;;;;;;;9.26;100.00;100608.16;6098750;23;20088;-82
2023/12/26 01:05:50;;;;;;;5.28;3.15;;;;;;;9.25;100.00;100617.63;6125720;23;20006;-79
2023/12/26 01:08:16;;;;;;;4.88;2.90;;;;;;;9.24;100.00;100608.22;6099564;23;20008;-82
2023/12/26 01:10:41;;;;;;;6.13;2.75;;;;;;;9.09;100.00;100588.56;6125348;23;20006;-80
2023/12/26 01:13:07;;;;;;;5.35;2.70;;;;;;;9.19;100.00;100608.50;6125635;23;20058;-79
2023/12/26 01:15:32;;;;;;;3.83;2.42;;;;;;;9.25;100.00;100627.09;6125771;23;20085;-80
2023/12/26 01:17:58;;;;;;;4.18;1.90;;;;;;;9.24;100.00;100618.53;6125608;23;20320;-79
2023/12/26 01:20:23;;;;;;;4.95;1.90;;;;;;;9.13;100.00;100601.13;6127282;23;20009;-80
2023/12/26 01:22:48;;;;;;;3.97;2.40;;;;;;;9.23;100.00;100627.19;6127405;23;20488;-79
2023/12/26 01:25:14;;;;;;;3.83;2.03;;;;;;;9.08;100.00;100607.50;6127264;23;20012;-82
2023/12/26 01:27:39;;;;;;;4.78;2.00;;;;;;;8.88;100.00;100562.34;6127258;23;20420;-80
2023/12/26 01:30:05;;;;;;;2.88;1.80;;;;;;;9.25;100.00;100615.06;6127514;23;20006;-80
2023/12/26 01:32:31;;;;;;;5.03;2.22;;;;;;;9.09;100.00;100604.84;6127190;23;20016;-80
2023/12/26 01:34:56;;;;;;;3.22;1.85;;;;;;;8.86;100.00;100572.75;6127387;23;20025;-80
2023/12/26 01:37:22;;;;;;;5.90;2.25;;;;;;;9.09;100.00;100622.03;6127758;23;20408;-79
2023/12/26 01:39:47;;;;;;;5.22;2.30;;;;;;;8.84;100.00;100578.88;6127138;23;20056;-78
2023/12/26 01:42:13;;;;;;;5.90;2.58;;;;;;;9.05;100.00;100613.69;6127345;23;20020;-79
2023/12/26 01:44:39;;;;;;;5.15;2.17;;;;;;;9.07;100.00;100616.97;6127362;23;20306;-79
2023/12/26 01:47:04;;;;;;;5.80;3.20;;;;;;;9.15;100.00;100625.09;6127061;23;20063;-79
2023/12/26 01:49:30;;;;;;;4.53;3.00;;;;;;;8.95;100.00;100604.00;6127575;23;20017;-79
2023/12/26 01:51:58;;;;;;;4.35;3.10;;;;;;;9.22;100.00;100656.44;6127117;23;20006;-78
2023/12/26 01:54:28;;;;;;;5.95;2.92;;;;;;;8.80;100.00;100585.97;6127247;23;20006;-79
2023/12/26 01:56:53;;;;;;;3.88;2.95;;;;;;;9.04;100.00;100627.44;6126853;23;20555;-79
2023/12/26 01:59:19;;;;;;;4.80;3.13;;;;;;;9.27;100.00;100666.47;6127106;23;20021;-79
2023/12/26 02:01:44;;;;;;;4.18;2.95;;;;;;;9.27;100.00;100663.91;6127323;23;20033;-80
2023/12/26 02:04:10;;;;;;;5.45;3.50;;;;;;;9.27;100.00;100658.75;6127145;23;20021;-79
2023/12/26 02:06:37;;;;;;;5.15;3.85;;;;;;;9.26;100.00;100667.41;6127455;23;20013;-80
2023/12/26 02:09:03;;;;;;;6.43;3.53;;;;;;;9.26;100.00;100654.53;6100551;23;20340;-80
2023/12/26 02:11:28;;;;;;;4.97;3.55;;;;;;;9.21;100.00;100665.09;6126919;23;20010;-80
2023/12/26 02:13:54;;;;;;;8.20;3.80;;;;;;;9.27;100.00;100671.63;6127496;23;20002;-79
2023/12/26 02:16:21;;;;;;;5.38;3.60;;;;;;;9.25;100.00;100660.59;6127268;23;20037;-81
2023/12/26 02:18:47;;;;;;;5.97;4.30;;;;;;;9.27;100.00;100661.34;6126956;23;20002;-80
2023/12/26 02:21:12;;;;;;;6.82;4.60;;;;;;;9.25;100.00;100658.84;6127150;23;20412;-80
2023/12/26 02:23:39;;;;;;;8.35;4.88;;;;;;;9.03;100.00;100635.28;6127100;23;20417;-79
2023/12/26 02:26:05;;;;;;;8.15;5.55;;;;;;;9.15;100.00;100666.31;6127313;23;20010;-79
2023/12/26 02:28:36;;;;;;;7.50;5.53;;;;;;;8.91;100.00;100622.22;6127098;23;20021;-80
2023/12/26 02:31:03;;;;;;;9.17;5.70;;;;;;;9.25;100.00;100668.34;6127023;23;20005;-79
2023/12/26 02:33:32;;;;;;;9.13;5.20;;;;;;;9.11;100.00;100656.25;6126618;23;20006;-80
2023/12/26 02:35:58;;;;;;;7.05;5.35;;;;;;;9.26;100.00;100675.97;6126964;23;20006;-81
2023/12/26 02:38:24;;;;;;;7.03;5.50;;;;;;;9.05;100.00;100648.91;6127018;23;20339;-80
2023/12/26 02:40:51;;;;;;;7.95;5.05;;;;;;;7.83;100.00;100445.84;6146904;23;20102;-79
2023/12/26 02:43:20;;;;;;;8.98;4.80;;;;;;;9.26;100.00;100681.13;6156254;23;20047;-80
2023/12/26 02:45:48;;;;;;;6.72;4.90;;;;;;;8.63;100.00;100586.13;6156360;23;20028;-79
2023/12/26 02:48:14;;;;;;;5.88;4.07;;;;;;;9.27;100.00;100689.69;6153977;23;20059;-80
2023/12/26 02:50:39;;;;;;;7.32;4.30;;;;;;;9.20;100.00;100673.75;6156205;23;20085;-81
2023/12/26 02:53:05;;;;;;;6.30;4.10;;;;;;;8.81;100.00;100615.94;6155906;23;20012;-81
2023/12/26 02:55:30;;;;;;;7.68;4.30;;;;;;;9.28;100.00;100689.59;6156280;23;20064;-79
2023/12/26 02:57:55;;;;;;;8.20;4.25;;;;;;;9.24;100.00;100684.69;6156046;23;20332;-80
2023/12/26 03:00:21;;;;;;;6.32;4.07;;;;;;;9.20;100.00;100686.63;6155836;23;20335;-79
2023/12/26 03:02:46;;;;;;;6.00;3.92;;;;;;;9.29;100.00;100722.16;6155932;23;20060;-79
2023/12/26 03:05:12;;;;;;;7.45;4.28;;;;;;;9.31;100.00;100719.47;6155683;23;20005;-79
2023/12/26 03:07:37;;;;;;;7.88;3.95;;;;;;;9.30;100.00;100712.69;6155970;23;20033;-79
2023/12/26 03:10:08;;;;;;;6.75;3.70;;;;;;;9.06;100.00;100690.03;6155965;23;20009;-80
2023/12/26 03:12:35;;;;;;;6.53;3.65;;;;;;;9.30;100.00;100728.97;6155808;23;20432;-79
2023/12/26 03:15:00;;;;;;;4.63;2.97;;;;;;;8.99;100.00;100690.47;6155825;23;20001;-81
2023/12/26 03:17:25;;;;;;;6.97;3.03;;;;;;;8.88;100.00;100673.91;6155870;23;20012;-81
2023/12/26 03:19:51;;;;;;;5.35;2.92;;;;;;;9.28;100.00;100727.41;6129426;23;20040;-84
2023/12/26 03:22:18;;;;;;;6.18;2.50;;;;;;;9.20;100.00;100730.44;6154284;23;20047;-83
2023/12/26 03:24:44;;;;;;;5.47;2.00;;;;;;;9.05;100.00;100713.31;6130145;23;20029;-82
2023/12/26 03:27:10;;;;;;;5.35;2.13;;;;;;;9.03;100.00;100709.97;6155795;23;20027;-84
2023/12/26 03:29:36;;;;;;;7.78;2.22;;;;;;;8.99;100.00;100724.78;6153649;23;20009;-84
2023/12/26 03:32:01;;;;;;;5.38;1.73;;;;;;;8.95;100.00;100725.88;6155769;23;20017;-81
2023/12/26 03:34:27;;;;;;;9.25;2.13;;;;;;;8.51;100.00;100664.88;6155869;23;20427;-81
2023/12/26 03:36:55;;;;;;;7.07;1.70;;;;;;;8.77;100.00;100709.75;6155561;23;20064;-84
2023/12/26 03:39:20;;;;;;;7.10;1.50;;;;;;;8.93;100.00;100734.59;6156019;23;20335;-85
2023/12/26 03:41:48;;;;;;;6.90;1.63;;;;;;;8.85;100.00;100740.22;6154745;23;20048;-83
2023/12/26 03:44:15;;;;;;;12.95;2.22;;;;;;;8.75;100.00;100731.31;6155784;23;20403;-84
2023/12/26 03:46:41;;;;;;;7.82;2.05;;;;;;;8.23;100.00;100650.13;6155680;23;20010;-85
2023/12/26 03:49:10;;;;;;;7.68;1.55;;;;;;;8.42;100.00;100686.00;6155232;23;20009;-84
2023/12/26 03:51:36;;;;;;;3.25;1.50;;;;;;;8.75;100.00;100744.19;6155641;23;20365;-84
2023/12/26 03:54:01;;;;;;;6.20;1.40;;;;;;;8.70;100.00;100746.22;6155601;23;20017;-85
2023/12/26 03:56:31;;;;;;;8.65;1.58;;;;;;;8.38;100.00;100705.09;6155653;23;20328;-84
2023/12/26 03:58:57;;;;;;;9.27;2.00;;;;;;;8.70;100.00;100765.06;6155288;23;20009;-82
2023/12/26 04:01:22;;;;;;;7.80;1.70;;;;;;;8.18;100.00;100675.31;6155199;23;20017;-82
2023/12/26 04:03:49;;;;;;;8.70;1.52;;;;;;;8.37;100.00;100723.22;6155555;23;20001;-84
2023/12/26 04:06:17;;;;;;;11.55;1.90;;;;;;;8.65;100.00;100771.38;6155397;23;20435;-83
2023/12/26 04:08:42;;;;;;;7.75;1.40;;;;;;;7.93;100.00;100656.97;6155071;23;20005;-83
2023/12/26 04:11:12;;;;;;;9.32;1.88;;;;;;;8.15;100.00;100714.03;6155843;23;20073;-84
2023/12/26 04:13:38;;;;;;;8.95;1.95;;;;;;;8.36;100.00;100753.25;6155355;23;20009;-82
2023/12/26 04:16:03;;;;;;;6.18;1.83;;;;;;;8.57;100.00;100782.94;6155132;23;20036;-83
2023/12/26 04:18:34;;;;;;;10.07;1.88;;;;;;;8.54;100.00;100777.13;6155577;23;20055;-83
2023/12/26 04:21:11;;;;;;;11.30;1.73;;;;;;;7.97;100.00;100690.19;6154905;23;20367;-84
2023/12/26 04:23:36;;;;;;;11.00;1.77;;;;;;;8.33;100.00;100753.38;6155133;23;20416;-84
2023/12/26 04:26:01;;;;;;;10.10;2.08;;;;;;;8.57;100.00;100789.84;6155633;23;20016;-84
2023/12/26 04:28:27;;;;;;;9.80;1.90;;;;;;;8.02;100.00;100721.59;6129210;23;20012;-83
2023/12/26 04:31:05;;;;;;;13.18;2.17;;;;;;;7.54;100.00;100647.94;6154970;23;20013;-84
2023/12/26 04:33:33;;;;;;;11.45;2.20;;;;;;;7.46;100.00;100650.91;6155065;23;20450;-81
2023/12/26 04:36:02;;;;;;;12.43;1.83;;;;;;;7.34;100.00;100631.00;6154992;23;20061;-83
2023/12/26 04:38:27;;;;;;;10.43;2.10;;;;;;;7.68;100.00;100706.31;6155183;23;20005;-82
2023/12/26 04:40:52;;;;;;;11.93;2.38;;;;;;;8.45;100.00;100821.38;6154949;23;20041;-81
2023/12/26 04:43:18;;;;;;;7.93;1.98;;;;;;;8.38;100.00;100832.94;6154819;23;20051;-82
2023/12/26 04:45:43;;;;;;;7.90;2.05;;;;;;;8.20;100.00;100814.94;6155006;23;20009;-81
2023/12/26 04:48:09;;;;;;;10.57;1.83;;;;;;;8.16;100.00;100836.63;6155265;23;20005;-81
2023/12/26 04:50:35;;;;;;;7.78;1.60;;;;;;;8.06;100.00;100832.84;6155018;23;20002;-80
2023/12/26 04:53:04;;;;;;;7.25;1.45;;;;;;;8.17;100.00;100858.84;6155331;23;20002;-83
2023/12/26 04:55:30;;;;;;;9.27;1.52;;;;;;;7.81;100.00;100805.00;6155024;23;20009;-82
2023/12/26 04:57:55;;;;;;;6.45;1.70;;;;;;;8.06;100.00;100855.97;6155038;23;20052;-81
2023/12/26 05:00:21;;;;;;;8.27;1.42;;;;;;;6.82;100.00;100659.38;6155203;23;20013;-81
2023/12/26 05:02:46;;;;;;;6.60;1.40;;;;;;;7.85;100.00;100860.50;6155044;23;20005;-83
2023/12/26 05:05:11;;;;;;;7.07;1.83;;;;;;;7.53;100.00;100823.56;6152957;23;20068;-82
2023/12/26 05:07:37;;;;;;;10.65;1.60;;;;;;;7.82;100.00;100883.78;6154988;23;20098;-81
2023/12/26 05:10:02;;;;;;;9.40;1.60;;;;;;;7.78;100.00;100887.44;6155317;23;20038;-81
2023/12/26 05:12:31;;;;;;;10.23;1.73;;;;;;;7.73;100.00;100891.97;6155162;23;20016;-81
2023/12/26 05:14:59;;;;;;;5.22;1.35;;;;;;;7.26;100.00;100840.34;6154994;23;20029;-81
2023/12/26 05:17:24;;;;;;;9.70;1.92;;;;;;;7.14;100.00;100824.66;6155200;23;20013;-81
2023/12/26 05:19:50;;;;;;;7.38;1.60;;;;;;;7.44;100.00;100885.69;6155102;23;20006;-82
2023/12/26 05:22:15;;;;;;;9.55;1.92;;;;;;;7.08;100.00;100824.97;6155139;23;20032;-82
2023/12/26 05:24:40;;;;;;;8.95;2.70;;;;;;;7.50;100.00;100912.84;6155153;23;20120;-81
2023/12/26 05:27:06;;;;;;;11.50;2.05;;;;;;;6.97;100.00;100827.19;6155255;23;20008;-82
2023/12/26 05:29:31;;;;;;;10.38;1.70;;;;;;;7.21;100.00;100873.97;6128772;23;20020;-81
2023/12/26 05:31:57;;;;;;;7.75;1.83;;;;;;;7.43;100.00;100920.00;6154864;23;20305;-82
2023/12/26 05:34:22;;;;;;;10.55;1.90;;;;;;;7.33;100.00;100887.97;6155269;23;20005;-81
2023/12/26 05:36:48;;;;;;;11.43;1.85;;;;;;;7.34;100.00;100884.47;6153138;23;20133;-82
2023/12/26 05:39:14;;;;;;;7.07;2.08;;;;;;;7.33;100.00;100867.41;6155264;23;20076;-82
2023/12/26 05:41:45;;;;;;;7.07;1.75;;;;;;;6.37;100.00;100695.78;6146535;23;20022;-81
2023/12/26 05:44:11;;;;;;;8.77;1.70;;;;;;;7.38;100.00;100856.03;6155282;23;20009;-83
2023/12/26 05:46:36;;;;;;;10.45;2.17;;;;;;;8.03;100.00;100941.00;6155013;23;20028;-82
2023/12/26 05:49:02;;;;;;;9.10;1.45;;;;;;;7.77;100.00;100901.22;6155289;23;20009;-81
2023/12/26 05:51:30;;;;;;;9.00;1.40;;;;;;;7.82;100.00;100909.50;6155127;23;20092;-85
2023/12/26 05:53:56;;;;;;;11.30;1.73;;;;;;;7.48;100.00;100851.25;6154639;23;20005;-82
2023/12/26 05:56:24;;;;;;;5.55;1.52;;;;;;;8.00;100.00;100948.91;6155090;23;20037;-81
2023/12/26 05:58:50;;;;;;;8.88;2.08;;;;;;;7.90;100.00;100958.81;6154733;23;20438;-83
2023/12/26 06:01:15;;;;;;;8.75;1.30;;;;;;;8.10;100.00;100991.25;6154788;23;20005;-86
2023/12/26 06:03:41;;;;;;;7.38;1.38;;;;;;;6.94;100.00;100806.81;6155337;23;20014;-84
2023/12/26 06:06:15;;;;;;;5.72;1.58;;;;;;;8.01;100.00;100999.41;6155874;23;20379;-83
2023/12/26 06:08:41;;;;;;;7.85;1.30;;;;;;;6.71;100.00;100820.75;6156798;23;20002;-81
2023/12/26 06:11:13;;;;;;;5.95;1.42;;;;;;;6.36;100.00;100757.41;6156304;23;20006;-81
2023/12/26 06:13:38;;;;;;;;;;;;;;;7.78;100.00;101004.88;6131037;23;20076;-85
2023/12/26 06:16:15;;;;;;;9.02;1.63;;;;;;;6.20;100.00;100772.69;6156997;23;19912;-81
2023/12/26 06:18:50;;;;;;;7.95;1.65;;;;;;;6.45;100.00;100829.63;6130466;23;20013;-82
2023/12/26 06:21:19;;;;;;;8.88;1.60;;;;;;;7.56;100.00;101017.88;6130120;23;20056;-82
2023/12/26 06:23:44;;;;;;;8.85;1.83;;;;;;;7.54;100.00;101035.94;6156197;23;20002;-82
2023/12/26 06:26:10;;;;;;;8.80;1.90;;;;;;;7.53;100.00;101033.47;6156648;23;20001;-85
2023/12/26 06:28:35;;;;;;;9.35;1.50;;;;;;;7.46;100.00;101032.91;6156555;23;20006;-82
2023/12/26 06:31:00;;;;;;;8.95;1.30;;;;;;;6.73;100.00;100919.00;6156207;23;20087;-82
2023/12/26 06:33:28;;;;;;;7.60;1.10;;;;;;;6.95;100.00;100969.38;6156402;23;20009;-82
2023/12/26 06:35:54;;;;;;;8.07;1.50;;;;;;;7.39;100.00;101052.09;6156459;23;20145;-86
2023/12/26 06:38:19;;;;;;;9.98;1.80;;;;;;;7.33;100.00;101062.66;6156207;23;20033;-82
2023/12/26 06:40:47;;;;;;;9.02;1.73;;;;;;;7.03;100.00;101016.91;6156118;23;20001;-83
2023/12/26 06:43:15;;;;;;;8.13;1.55;;;;;;;6.88;100.00;101008.19;6129836;23;20009;-84
2023/12/26 06:45:41;;;;;;;7.10;1.40;;;;;;;6.69;100.00;100978.25;6156606;23;20047;-83
2023/12/26 06:48:06;;;;;;;6.90;1.88;;;;;;;7.03;100.00;101047.72;6129520;23;20005;-82
2023/12/26 06:50:32;;;;;;;6.93;1.23;;;;;;;7.14;100.00;101068.59;6155932;23;20029;-84
2023/12/26 06:52:59;;;;;;;7.47;1.42;;;;;;;6.84;100.00;101032.28;6129854;23;20008;-82
2023/12/26 06:55:25;;;;;;;7.07;1.73;;;;;;;6.71;100.00;101022.66;6156141;23;20033;-84
2023/12/26 06:57:50;;;;;;;7.20;1.40;;;;;;;7.02;100.00;101079.44;6155989;23;20006;-82
2023/12/26 07:00:17;;;;;;;7.75;1.60;;;;;;;6.90;100.00;101073.09;6156091;23;20408;-84
2023/12/26 07:02:46;;;;;;;9.63;1.55;;;;;;;6.24;100.00;100971.66;6156202;23;20005;-83
2023/12/26 07:05:18;;;;;;;10.23;1.70;;;;;;;6.04;100.00;100941.72;6155919;23;20068;-80
2023/12/26 07:07:44;;;;;;;8.45;1.45;;;;;;;6.74;100.00;101064.41;6152346;23;20009;-80
2023/12/26 07:10:09;;;;;;;9.18;2.10;;;;;;;6.28;100.00;101011.63;6157123;23;20044;-81
2023/12/26 07:12:35;;;;;;;11.00;1.77;;;;;;;6.47;100.00;101055.31;6156158;23;20013;-80
2023/12/26 07:15:00;;;;;;;8.00;1.55;;;;;;;6.18;100.00;101015.50;6155990;23;20002;-84
2023/12/26 07:17:25;;;;;;;9.02;1.88;;;;;;;6.36;100.00;101060.06;6155437;23;20462;-81
2023/12/26 07:20:00;;;;;;;10.05;2.22;;;;;;;6.43;100.00;101080.25;6155590;23;20450;-81
2023/12/26 07:22:26;;;;;;;10.90;1.63;;;;;;;6.30;100.00;101074.81;6155423;23;20009;-82
2023/12/26 07:24:51;;;;;;;9.05;2.13;;;;;;;6.12;100.00;101049.09;6155794;23;20016;-83
2023/12/26 07:27:17;;;;;;;8.73;2.10;;;;;;;6.66;100.00;101137.47;6129745;23;20005;-87
2023/12/26 07:29:42;;;;;;;8.57;1.67;;;;;;;6.67;100.00;101134.84;6156314;23;20412;-80
2023/12/26 07:32:08;;;;;;;12.10;2.00;;;;;;;5.98;100.00;101029.97;6155644;23;20012;-79
2023/12/26 07:34:33;;;;;;;7.72;1.77;;;;;;;6.70;100.00;101157.00;6155940;23;20005;-85
2023/12/26 07:36:58;;;;;;;11.55;2.10;;;;;;;6.69;100.00;101153.59;6156022;23;20072;-86
2023/12/26 07:39:24;;;;;;;8.88;1.85;;;;;;;6.66;100.00;101142.59;6155839;23;20001;-87
2023/12/26 07:41:49;;;;;;;10.45;2.75;;;;;;;6.84;100.00;101159.81;6155494;23;20100;-84
2023/12/26 07:44:15;;;;;;;11.65;2.10;;;;;;;6.81;100.00;101139.41;6156099;23;20440;-76
2023/12/26 07:46:40;;;;;;;10.93;2.05;;;;;;;7.01;100.00;101175.34;6128842;23;20416;-88
2023/12/26 07:49:06;;;;;;;10.30;2.28;;;;;;;6.81;100.00;101132.53;6155878;23;20001;-87
2023/12/26 07:51:32;;;;;;;10.57;2.13;;;;;;;7.08;100.00;101171.63;6155848;23;20016;-87
2023/12/26 07:53:59;;;;;;;7.72;1.92;;;;;;;7.12;100.00;101167.16;6155333;23;20005;-88
2023/12/26 07:56:25;;;;;;;10.60;1.80;;;;;;;6.69;100.00;101097.13;6155745;23;20006;-87
2023/12/26 07:58:52;;;;;;;10.60;1.88;;;;;;;7.15;100.00;101170.44;6155835;23;20081;-86
2023/12/26 08:01:18;;;;;;;11.73;2.35;;;;;;;6.94;100.00;101148.25;6155299;23;20332;-86
2023/12/26 08:03:43;;;;;;;9.25;1.92;;;;;;;7.17;100.00;101196.88;6155765;23;20008;-88
2023/12/26 08:06:09;;;;;;;11.43;2.00;;;;;;;6.82;100.00;101148.78;6155374;23;20012;-88
2023/12/26 08:08:34;;;;;;;12.30;2.38;;;;;;;6.80;100.00;101155.72;6156779;23;20005;-82
2023/12/26 08:11:00;;;;;;;14.80;3.30;;;;;;;6.84;100.00;101168.34;6155606;23;20005;-82
2023/12/26 08:13:26;;;;;;;11.80;2.20;;;;;;;7.07;100.00;101207.59;6155728;23;20069;-87
2023/12/26 08:15:52;;;;;;;12.50;2.38;;;;;;;7.06;100.00;101226.50;6155220;23;20005;-86
2023/12/26 08:18:17;;;;;;;10.52;1.90;;;;;;;6.87;100.00;101201.56;6155319;23;20044;-86
2023/12/26 08:20:42;;;;;;;10.52;2.28;;;;;;;7.06;100.00;101231.63;6155300;23;20001;-86
2023/12/26 08:23:07;;;;;;;11.55;1.83;;;;;;;6.86;100.00;101205.03;6155175;23;20013;-82
2023/12/26 08:25:33;;;;;;;9.93;1.98;;;;;;;7.06;100.00;101240.16;6153707;23;20110;-84
2023/12/26 08:27:58;;;;;;;9.15;2.50;;;;;;;7.06;100.00;101242.72;6156202;23;20048;-83
2023/12/26 08:30:24;;;;;;;11.98;2.53;;;;;;;7.03;100.00;101239.47;6129930;23;20052;-82
2023/12/26 08:32:49;;;;;;;9.00;2.20;;;;;;;7.05;100.00;101235.09;6155063;23;20431;-85
2023/12/26 08:35:14;;;;;;;10.93;2.63;;;;;;;7.13;100.00;101251.03;6155454;23;20011;-85
2023/12/26 08:37:40;;;;;;;11.45;1.73;;;;;;;7.08;100.00;101247.78;6155488;23;20009;-84
2023/12/26 08:40:06;;;;;;;14.18;2.42;;;;;;;6.94;100.00;101230.41;6155372;23;20012;-83
2023/12/26 08:42:31;;;;;;;12.45;2.55;;;;;;;7.11;100.00;101256.22;6154415;23;20025;-86
2023/12/26 08:44:56;;;;;;;11.20;2.53;;;;;;;7.13;100.00;101266.44;6152964;23;20439;-86
2023/12/26 08:47:22;;;;;;;12.73;2.20;;;;;;;6.90;100.00;101221.19;6155096;23;20001;-86
2023/12/26 08:49:47;;;;;;;14.23;2.97;;;;;;;7.21;100.00;101268.69;6128499;23;20010;-84
2023/12/26 08:52:13;;;;;;;9.82;2.03;;;;;;;7.25;100.00;101273.63;6155520;23;20009;-86
2023/12/26 08:54:39;;;;;;;14.05;2.20;;;;;;;7.33;100.00;101291.28;6129669;23;20083;-85
2023/12/26 08:57:04;;;;;;;10.13;1.95;;;;;;;7.14;100.00;101253.53;6155108;23;20078;-84
2023/12/26 08:59:30;;;;;;;14.57;2.85;;;;;;;7.44;100.00;101307.06;6128573;23;20009;-85
2023/12/26 09:01:56;;;;;;;11.65;2.53;;;;;;;7.08;100.00;101252.94;6155383;23;20045;-87
2023/12/26 09:04:26;;;;;;;14.45;3.28;;;;;;;7.41;100.00;101294.38;6153083;23;20014;-82
2023/12/26 09:06:51;;;;;;;10.38;2.30;;;;;;;7.50;100.00;101301.69;6152827;23;20009;-87
2023/12/26 09:09:17;;;;;;;7.53;2.20;;;;;;;7.09;100.00;101223.81;6155002;23;20012;-85
2023/12/26 09:11:42;;;;;;;13.05;2.30;;;;;;;7.47;100.00;101291.53;6154898;23;20057;-83
2023/12/26 09:14:07;;;;;;;15.07;3.33;;;;;;;7.39;100.00;101297.00;6155449;23;20008;-84
2023/12/26 09:16:33;;;;;;;12.07;2.22;;;;;;;7.44;100.00;101330.19;6155344;23;20412;-82
2023/12/26 09:18:58;;;;;;;10.27;2.67;;;;;;;7.35;100.00;101326.28;6154955;23;20005;-85
2023/12/26 09:21:23;;;;;;;10.63;2.17;;;;;;;7.41;100.00;101332.91;6154664;23;20012;-85
2023/12/26 09:23:49;;;;;;;10.02;2.40;;;;;;;7.38;100.00;101340.75;6153332;23;20028;-77
2023/12/26 09:26:20;;;;;;;10.13;2.00;;;;;;;7.16;100.00;101331.34;6155559;23;20006;-74
2023/12/26 09:28:45;;;;;;;12.32;2.50;;;;;;;7.30;100.00;101358.22;6155399;23;20064;-76
2023/12/26 09:31:11;;;;;;;13.90;1.98;;;;;;;7.20;100.00;101355.19;6154981;23;20013;-73
2023/12/26 09:33:36;;;;;;;10.75;2.67;;;;;;;7.24;100.00;101363.59;6155237;23;20010;-82
2023/12/26 09:36:02;;;;;;;15.35;2.83;;;;;;;7.21;100.00;101372.25;6154751;23;20309;-83
2023/12/26 09:38:27;;;;;;;15.77;2.40;;;;;;;7.15;100.00;101355.34;6154776;23;20029;-82
2023/12/26 09:40:53;;;;;;;11.43;2.33;;;;;;;7.12;100.00;101360.63;6155820;23;20076;-82
2023/12/26 09:43:18;;;;;;;16.40;2.45;;;;;;;7.12;100.00;101383.72;6156318;23;20018;-75
2023/12/26 09:45:44;;;;;;;11.27;2.25;;;;;;;7.04;100.00;101375.50;6156649;23;20006;-82
2023/12/26 09:48:11;;;;;;;11.43;2.42;;;;;;;6.91;100.00;101371.75;6157020;23;20052;-80
2023/12/26 09:50:36;;;;;;;13.80;2.35;;;;;;;6.86;100.00;101358.25;6156834;23;20072;-83
2023/12/26 09:53:07;;;;;;;10.32;2.28;;;;;;;7.05;100.00;101400.28;6129166;23;20010;-82
2023/12/26 09:55:33;;;;;;;12.25;2.30;;;;;;;7.08;100.00;101402.75;6156744;23;20008;-83
2023/12/26 09:57:59;;;;;;;10.80;2.17;;;;;;;7.00;100.00;101383.38;6156614;23;20001;-77
2023/12/26 10:00:26;;;;;;;14.98;2.97;;;;;;;6.89;100.00;101366.69;6157002;23;20076;-77
2023/12/26 10:02:52;;;;;;;11.40;2.13;;;;;;;7.16;100.00;101404.97;6156612;23;20010;-75
2023/12/26 10:05:18;;;;;;;10.90;2.40;;;;;;;7.02;100.00;101382.44;6156595;23;20079;-74
2023/12/26 10:07:43;;;;;;;7.63;1.85;;;;;;;7.25;100.00;101414.06;6155682;23;20006;-85
2023/12/26 10:10:19;;;;;;;11.82;2.30;;;;;;;7.17;100.00;101416.94;6130220;23;20005;-77
2023/12/26 10:12:46;;;;;;;14.93;2.95;;;;;;;7.29;100.00;101443.88;6154182;23;20009;-78
2023/12/26 10:15:11;;;;;;;13.57;2.05;;;;;;;7.32;100.00;101451.47;6156257;23;20006;-77
2023/12/26 10:17:38;;;;;;;11.30;2.88;;;;;;;7.28;100.00;101442.22;6156399;23;20092;-77
2023/12/26 10:20:04;;;;;;;13.65;2.67;;;;;;;7.42;100.00;101465.63;6156312;23;20010;-82
2023/12/26 10:22:31;;;;;;;11.18;2.70;;;;;;;7.31;100.00;101436.94;6156378;23;20010;-79
2023/12/26 10:24:56;;;;;;;12.02;2.70;;;;;;;7.48;100.00;101448.25;6156078;23;20036;-79
2023/12/26 10:27:22;;;;;;;12.20;2.58;;;;;;;7.44;100.00;101438.13;6156373;23;20010;-76
2023/12/26 10:29:54;;;;;;;10.35;2.30;;;;;;;7.40;100.00;101427.16;6156438;23;20052;-74
2023/12/26 10:32:19;;;;;;;;;;;;;;;7.58;100.00;101445.31;6156971;23;20013;-77
2023/12/26 10:34:45;;;;;;;10.00;2.03;;;;;;;7.59;100.00;101450.38;6156490;23;19908;-75
2023/12/26 10:37:11;;;;;;;13.52;3.08;;;;;;;7.61;100.00;101451.13;6156487;23;20005;-75
2023/12/26 10:39:36;;;;;;;10.25;2.28;;;;;;;7.65;100.00;101444.97;6156094;23;20012;-77
2023/12/26 10:42:03;;;;;;;12.20;2.17;;;;;;;7.62;100.00;101442.53;6156028;23;20013;-77
2023/12/26 10:44:56;;;;;;;15.93;3.22;;;;;;;7.72;100.00;101453.28;6156028;23;20016;-76
2023/12/26 10:47:23;;;;;;;9.95;2.25;;;;;;;7.53;100.00;101417.19;6156428;23;20039;-77
2023/12/26 10:49:55;;;;;;;13.30;3.35;;;;;;;7.77;100.00;101456.50;6156020;23;20029;-77
2023/12/26 10:52:22;;;;;;;11.45;2.65;;;;;;;7.56;100.00;101409.34;6156209;23;20379;-76
2023/12/26 10:54:48;;;;;;;9.57;2.10;;;;;;;7.67;100.00;101437.19;6156123;23;20029;-76
2023/12/26 10:57:16;;;;;;;14.15;2.38;;;;;;;7.85;100.00;101453.59;6156230;23;20080;-75
2023/12/26 13:51:47;;;;;;;12.00;2.72;;;;;;;8.55;100.00;101652.25;6156455;23;20020;-75
2023/12/26 13:54:49;;;;;;;12.27;3.03;;;;;;;8.52;100.00;101656.66;6156445;23;20041;-74
2023/12/26 13:57:52;;;;;;;10.02;2.35;;;;;;;8.50;100.00;101659.31;6156219;23;20002;-75
2023/12/26 14:00:55;;;;;;;9.73;2.20;;;;;;;8.49;100.00;101661.94;6156616;23;20056;-76
2023/12/26 14:03:57;;;;;;;14.48;2.88;;;;;;;8.47;100.00;101676.63;6156594;23;20001;-76
2023/12/26 14:07:00;;;;;;;12.80;2.58;;;;;;;8.45;100.00;101683.53;6156241;23;20301;-81
2023/12/26 14:10:03;;;;;;;14.63;3.00;;;;;;;8.44;100.00;101690.44;6156423;23;20001;-74
2023/12/26 14:13:06;;;;;;;12.65;2.95;;;;;;;8.40;100.00;101681.16;6156300;23;20502;-73